createdAt,value
2023-03-17T00:00:29.862Z,118.04
2023-03-17T00:01:31.964Z,114.75
2023-03-17T00:02:33.835Z,111.49
2023-03-17T00:03:35.606Z,104.07
2023-03-17T00:04:37.510Z,104.38
2023-03-17T00:05:39.325Z,104.71
2023-03-17T00:06:41.137Z,102.33
2023-03-17T00:07:42.990Z,104.49
2023-03-17T00:08:45.017Z,103.91
2023-03-17T00:09:47.081Z,99.37
2023-03-17T00:10:49.015Z,100.49
2023-03-17T00:11:50.991Z,105.40
2023-03-17T00:12:52.986Z,105.45
2023-03-17T00:13:55.014Z,104.67
2023-03-17T00:14:56.923Z,106.66
2023-03-17T00:15:58.746Z,109.73
2023-03-17T00:17:00.649Z,105.77
2023-03-17T00:18:02.622Z,110.26
2023-03-17T00:19:04.543Z,101.71
2023-03-17T00:20:06.776Z,92.67
2023-03-17T00:21:08.741Z,94.97
2023-03-17T00:22:10.544Z,89.82
2023-03-17T00:23:12.352Z,92.11
2023-03-17T00:24:15.158Z,84.89
2023-03-17T00:25:17.356Z,79.12
2023-03-17T00:26:19.267Z,83.42
2023-03-17T00:27:21.074Z,74.40
2023-03-17T00:28:22.987Z,76.21
2023-03-17T00:29:24.805Z,76.37
2023-03-17T00:30:26.656Z,69.28
2023-03-17T00:31:28.514Z,68.20
2023-03-17T00:32:30.386Z,69.60
2023-03-17T00:33:32.200Z,68.47
2023-03-17T00:34:34.021Z,69.43
2023-03-17T00:35:35.948Z,64.75
2023-03-17T00:36:37.688Z,65.32
2023-03-17T00:37:39.503Z,71.21
2023-03-17T00:38:41.412Z,66.20
2023-03-17T00:39:43.209Z,70.63
2023-03-17T00:42:47.449Z,69.05
2023-03-17T00:43:49.292Z,68.04
2023-03-17T00:44:51.175Z,69.64
2023-03-17T00:45:53.037Z,63.31
2023-03-17T00:46:54.963Z,62.61
2023-03-17T00:47:56.778Z,62.13
2023-03-17T00:48:58.589Z,59.81
2023-03-17T00:50:00.314Z,60.90
2023-03-17T00:51:02.186Z,59.87
2023-03-17T00:52:04.007Z,55.85
2023-03-17T00:53:05.822Z,60.58
2023-03-17T00:54:07.635Z,63.86
2023-03-17T00:55:09.434Z,57.92
2023-03-17T00:56:12.204Z,58.50
2023-03-17T00:57:14.006Z,53.61
2023-03-17T00:58:15.830Z,51.93
2023-03-17T00:59:19.368Z,58.72
2023-03-17T01:00:21.314Z,61.83
2023-03-17T01:01:23.202Z,54.49
2023-03-17T01:02:26.040Z,53.46
2023-03-17T01:03:27.961Z,54.26
2023-03-17T01:04:29.697Z,55.79
2023-03-17T01:05:31.493Z,52.11
2023-03-17T01:06:33.345Z,52.43
2023-03-17T01:07:35.148Z,52.57
2023-03-17T01:08:36.966Z,54.17
2023-03-17T01:09:38.784Z,54.79
2023-03-17T01:10:40.597Z,52.07
2023-03-17T01:11:42.455Z,53.60
2023-03-17T01:12:44.263Z,54.62
2023-03-17T01:13:46.087Z,55.84
2023-03-17T01:14:48.001Z,54.68
2023-03-17T01:15:49.816Z,52.17
2023-03-17T01:16:51.677Z,56.02
2023-03-17T01:17:53.499Z,53.97
2023-03-17T01:18:55.327Z,52.06
2023-03-17T01:19:57.131Z,54.35
2023-03-17T01:20:59.113Z,54.95
2023-03-17T01:22:00.992Z,56.46
2023-03-17T01:23:02.928Z,55.29
2023-03-17T01:24:04.718Z,57.49
2023-03-17T01:25:06.542Z,55.45
2023-03-17T01:26:08.372Z,54.54
2023-03-17T01:27:10.217Z,55.81
2023-03-17T01:28:12.033Z,53.93
2023-03-17T01:29:13.837Z,56.16
2023-03-17T01:30:15.946Z,50.71
2023-03-17T01:31:17.685Z,54.04
2023-03-17T01:32:19.492Z,55.85
2023-03-17T01:33:21.289Z,51.61
2023-03-17T01:34:23.112Z,52.73
2023-03-17T01:35:24.946Z,56.00
2023-03-17T01:36:26.758Z,57.11
2023-03-17T01:37:28.622Z,56.53
2023-03-17T01:38:30.436Z,54.05
2023-03-17T01:39:32.250Z,58.61
2023-03-17T01:40:34.051Z,58.86
2023-03-17T01:41:35.870Z,60.21
2023-03-17T01:42:37.734Z,55.10
2023-03-17T01:43:39.538Z,55.98
2023-03-17T01:44:41.353Z,54.96
2023-03-17T01:45:43.190Z,59.96
2023-03-17T01:46:44.956Z,59.63
2023-03-17T01:47:46.816Z,58.87
2023-03-17T01:48:48.640Z,60.69
2023-03-17T01:49:50.430Z,65.87
2023-03-17T01:50:52.301Z,63.99
2023-03-17T01:51:54.102Z,60.71
2023-03-17T01:52:55.966Z,64.09
2023-03-17T01:53:57.781Z,59.65
2023-03-17T01:54:59.597Z,56.68
2023-03-17T01:56:01.480Z,61.25
2023-03-17T01:57:03.289Z,60.21
2023-03-17T01:58:05.153Z,51.64
2023-03-17T01:59:06.944Z,50.84
2023-03-17T02:00:09.157Z,51.96
2023-03-17T02:01:11.007Z,54.38
2023-03-17T02:02:12.861Z,51.22
2023-03-17T02:03:14.698Z,50.82
2023-03-17T02:04:16.561Z,51.24
2023-03-17T02:05:18.302Z,52.89
2023-03-17T02:06:20.105Z,51.85
2023-03-17T02:07:21.893Z,49.31
2023-03-17T02:08:23.757Z,50.05
2023-03-17T02:09:25.574Z,54.65
2023-03-17T02:10:27.452Z,55.35
2023-03-17T02:11:29.276Z,50.50
2023-03-17T02:12:31.116Z,52.60
2023-03-17T02:13:32.986Z,55.08
2023-03-17T02:14:34.774Z,53.05
2023-03-17T02:15:36.579Z,51.21
2023-03-17T02:16:38.452Z,50.97
2023-03-17T02:17:40.264Z,52.15
2023-03-17T02:18:42.079Z,51.61
2023-03-17T02:19:43.925Z,52.96
2023-03-17T02:20:45.698Z,48.92
2023-03-17T02:21:47.511Z,54.09
2023-03-17T02:22:49.322Z,54.14
2023-03-17T02:23:51.205Z,53.73
2023-03-17T02:24:52.978Z,54.50
2023-03-17T02:25:54.716Z,55.03
2023-03-17T02:26:56.597Z,55.21
2023-03-17T02:27:58.408Z,55.26
2023-03-17T02:29:00.250Z,59.99
2023-03-17T02:30:02.045Z,62.19
2023-03-17T02:31:03.899Z,56.83
2023-03-17T02:32:05.772Z,58.72
2023-03-17T02:33:07.669Z,60.63
2023-03-17T02:34:09.496Z,62.63
2023-03-17T02:35:11.311Z,64.89
2023-03-17T02:36:13.416Z,63.81
2023-03-17T02:37:15.204Z,66.80
2023-03-17T02:38:17.019Z,70.75
2023-03-17T02:39:18.921Z,70.85
2023-03-17T02:40:20.733Z,72.55
2023-03-17T02:41:22.593Z,74.91
2023-03-17T02:42:24.403Z,72.11
2023-03-17T02:43:26.215Z,75.75
2023-03-17T02:44:28.336Z,75.25
2023-03-17T02:45:30.244Z,73.49
2023-03-17T02:46:32.116Z,80.43
2023-03-17T02:47:33.875Z,82.52
2023-03-17T02:48:35.717Z,99.57
2023-03-17T02:49:37.533Z,93.27
2023-03-17T02:50:39.329Z,94.45
2023-03-17T02:51:41.138Z,98.13
2023-03-17T02:52:42.950Z,102.96
2023-03-17T02:53:44.794Z,100.76
2023-03-17T02:54:46.640Z,108.04
2023-03-17T02:55:48.448Z,106.89
2023-03-17T02:56:50.257Z,110.40
2023-03-17T02:57:52.076Z,106.99
2023-03-17T02:58:53.870Z,110.41
2023-03-17T02:59:55.720Z,115.85
2023-03-17T03:00:57.633Z,119.40
2023-03-17T03:01:59.446Z,121.02
2023-03-17T03:03:01.261Z,119.31
2023-03-17T03:04:03.046Z,120.60
2023-03-17T03:05:04.889Z,114.63
2023-03-17T03:06:06.800Z,113.23
2023-03-17T03:07:08.596Z,116.01
2023-03-17T03:08:10.396Z,118.84
2023-03-17T03:09:12.214Z,117.38
2023-03-17T03:10:15.555Z,109.73
2023-03-17T03:11:17.350Z,111.93
2023-03-17T03:12:19.174Z,111.89
2023-03-17T03:13:20.895Z,110.57
2023-03-17T03:14:22.691Z,116.60
2023-03-17T03:15:24.558Z,115.59
2023-03-17T03:16:26.357Z,112.69
2023-03-17T03:17:31.376Z,115.06
2023-03-17T03:18:33.249Z,116.09
2023-03-17T03:19:35.051Z,125.95
2023-03-17T03:20:36.913Z,115.52
2023-03-17T03:21:38.822Z,121.81
2023-03-17T03:22:40.620Z,130.31
2023-03-17T03:23:42.419Z,125.55
2023-03-17T03:24:44.242Z,133.72
2023-03-17T03:25:46.100Z,143.20
2023-03-17T03:26:47.897Z,141.78
2023-03-17T03:27:49.696Z,142.35
2023-03-17T03:28:51.526Z,153.83
2023-03-17T03:29:53.351Z,148.07
2023-03-17T03:30:55.219Z,145.75
2023-03-17T03:31:57.028Z,145.99
2023-03-17T03:32:58.867Z,139.56
2023-03-17T03:34:00.708Z,141.61
2023-03-17T03:35:02.518Z,141.07
2023-03-17T03:36:04.391Z,137.77
2023-03-17T03:37:06.166Z,136.85
2023-03-17T03:38:07.978Z,134.55
2023-03-17T03:39:09.702Z,128.77
2023-03-17T03:40:11.787Z,129.96
2023-03-17T03:41:13.617Z,123.76
2023-03-17T03:42:15.422Z,131.65
2023-03-17T03:43:23.253Z,131.17
2023-03-17T03:44:20.851Z,137.56
2023-03-17T03:45:22.679Z,129.80
2023-03-17T03:46:24.549Z,136.24
2023-03-17T03:47:26.342Z,135.57
2023-03-17T03:48:28.157Z,130.63
2023-03-17T03:49:29.968Z,128.99
2023-03-17T03:50:32.105Z,131.65
2023-03-17T03:51:34.155Z,129.16
2023-03-17T03:52:35.968Z,127.33
2023-03-17T03:53:37.766Z,119.32
2023-03-17T03:54:39.572Z,120.45
2023-03-17T03:55:41.688Z,130.52
2023-03-17T03:56:43.592Z,131.78
2023-03-17T03:57:45.406Z,139.91
2023-03-17T03:58:47.193Z,134.99
2023-03-17T03:59:49.022Z,123.47
2023-03-17T04:00:50.851Z,121.86
2023-03-17T04:01:52.680Z,126.26
2023-03-17T04:02:54.509Z,125.90
2023-03-17T04:03:56.417Z,134.29
2023-03-17T04:04:58.257Z,119.81
2023-03-17T04:06:00.036Z,112.05
2023-03-17T04:07:01.882Z,104.40
2023-03-17T04:08:03.691Z,100.13
2023-03-17T04:09:05.575Z,94.76
2023-03-17T04:10:07.595Z,84.17
2023-03-17T04:11:09.408Z,74.34
2023-03-17T04:12:11.253Z,76.79
2023-03-17T04:13:13.072Z,75.55
2023-03-17T04:14:14.876Z,80.71
2023-03-17T04:15:16.684Z,72.03
2023-03-17T04:16:18.501Z,73.32
2023-03-17T04:17:20.335Z,78.37
2023-03-17T04:18:22.156Z,84.71
2023-03-17T04:19:23.970Z,79.71
2023-03-17T04:20:25.876Z,84.10
2023-03-17T04:21:27.698Z,78.67
2023-03-17T04:22:29.567Z,94.40
2023-03-17T04:23:31.376Z,92.36
2023-03-17T04:24:33.178Z,91.85
2023-03-17T04:25:34.991Z,104.54
2023-03-17T04:26:36.807Z,98.67
2023-03-17T04:27:38.657Z,97.10
2023-03-17T04:28:40.475Z,111.33
2023-03-17T04:29:42.277Z,113.13
2023-03-17T04:30:44.090Z,112.93
2023-03-17T04:31:45.993Z,118.89
2023-03-17T04:32:47.859Z,108.16
2023-03-17T04:33:49.656Z,103.41
2023-03-17T04:34:51.468Z,100.49
2023-03-17T04:35:53.339Z,89.02
2023-03-17T04:36:55.503Z,82.45
2023-03-17T04:37:57.342Z,81.79
2023-03-17T04:38:59.153Z,70.55
2023-03-17T04:40:00.955Z,79.10
2023-03-17T04:41:02.772Z,76.47
2023-03-17T04:42:04.575Z,80.03
2023-03-17T04:43:06.422Z,81.84
2023-03-17T04:44:08.238Z,87.44
2023-03-17T04:45:10.041Z,80.07
2023-03-17T04:46:12.365Z,84.28
2023-03-17T04:47:14.184Z,100.14
2023-03-17T04:48:16.040Z,100.07
2023-03-17T04:49:17.852Z,103.40
2023-03-17T04:50:19.788Z,101.83
2023-03-17T04:51:21.674Z,99.68
2023-03-17T04:52:23.455Z,96.41
2023-03-17T04:53:25.294Z,96.41
2023-03-17T04:54:27.015Z,95.85
2023-03-17T04:55:28.868Z,88.08
2023-03-17T04:56:32.008Z,85.07
2023-03-17T04:57:34.191Z,83.92
2023-03-17T04:58:36.031Z,81.88
2023-03-17T04:59:37.848Z,81.73
2023-03-17T05:00:39.882Z,75.04
2023-03-17T05:01:41.703Z,83.79
2023-03-17T05:02:43.511Z,78.96
2023-03-17T05:03:45.375Z,78.72
2023-03-17T05:04:47.178Z,79.23
2023-03-17T05:05:48.986Z,76.69
2023-03-17T05:06:50.839Z,77.06
2023-03-17T05:07:52.646Z,74.88
2023-03-17T05:08:54.487Z,79.07
2023-03-17T05:09:56.312Z,71.56
2023-03-17T05:10:58.112Z,73.76
2023-03-17T05:11:59.918Z,79.87
2023-03-17T05:13:01.733Z,78.35
2023-03-17T05:14:03.602Z,74.87
2023-03-17T05:15:05.448Z,68.27
2023-03-17T05:16:07.807Z,70.99
2023-03-17T05:17:09.807Z,68.17
2023-03-17T05:18:11.592Z,70.51
2023-03-17T05:19:13.342Z,73.36
2023-03-17T05:20:15.278Z,65.93
2023-03-17T05:21:17.116Z,64.43
2023-03-17T05:22:18.915Z,71.94
2023-03-17T05:23:20.735Z,68.04
2023-03-17T05:24:22.574Z,66.59
2023-03-17T05:25:24.438Z,67.85
2023-03-17T05:26:26.261Z,64.33
2023-03-17T05:27:28.069Z,61.59
2023-03-17T05:28:29.877Z,57.89
2023-03-17T05:29:31.740Z,57.03
2023-03-17T05:30:34.124Z,57.71
2023-03-17T05:31:36.177Z,55.23
2023-03-17T05:32:38.116Z,59.01
2023-03-17T05:33:40.046Z,61.17
2023-03-17T05:34:41.892Z,78.72
2023-03-17T05:35:43.726Z,81.84
2023-03-17T05:36:45.523Z,80.85
2023-03-17T05:37:47.357Z,77.39
2023-03-17T05:38:49.178Z,78.57
2023-03-17T05:39:51.063Z,90.35
2023-03-17T05:40:52.879Z,84.97
2023-03-17T05:41:54.664Z,82.39
2023-03-17T05:42:56.453Z,75.18
2023-03-17T05:43:58.276Z,67.13
2023-03-17T05:45:00.179Z,65.53
2023-03-17T05:46:02.075Z,70.91
2023-03-17T05:47:03.870Z,71.00
2023-03-17T05:48:05.699Z,72.87
2023-03-17T05:49:07.528Z,76.49
2023-03-17T05:50:09.370Z,81.11
2023-03-17T05:51:11.175Z,73.27
2023-03-17T05:52:12.987Z,67.43
2023-03-17T05:53:14.800Z,74.47
2023-03-17T05:54:16.731Z,70.39
2023-03-17T05:55:18.503Z,69.87
2023-03-17T05:56:20.413Z,67.66
2023-03-17T05:57:22.123Z,75.89
2023-03-17T05:58:23.928Z,70.34
2023-03-17T05:59:25.734Z,70.24
2023-03-17T06:00:27.716Z,68.41
2023-03-17T06:01:29.530Z,73.08
2023-03-17T06:02:31.350Z,72.92
2023-03-17T06:03:33.319Z,75.56
2023-03-17T06:04:35.251Z,75.48
2023-03-17T06:05:37.113Z,73.63
2023-03-17T06:06:38.917Z,73.66
2023-03-17T06:07:51.166Z,73.34
2023-03-17T06:08:44.359Z,79.07
2023-03-17T06:09:46.178Z,76.22
2023-03-17T06:10:48.066Z,74.23
2023-03-17T06:11:49.786Z,88.43
2023-03-17T06:12:51.616Z,81.55
2023-03-17T06:13:53.418Z,89.84
2023-03-17T06:14:55.234Z,85.84
2023-03-17T06:15:57.190Z,84.41
2023-03-17T06:16:58.996Z,88.42
2023-03-17T06:18:00.811Z,90.11
2023-03-17T06:19:02.788Z,87.61
2023-03-17T06:20:04.600Z,82.41
2023-03-17T06:21:06.434Z,80.89
2023-03-17T06:22:08.267Z,80.55
2023-03-17T06:23:10.089Z,69.93
2023-03-17T06:24:11.917Z,67.09
2023-03-17T06:25:13.718Z,60.34
2023-03-17T06:26:15.760Z,66.17
2023-03-17T06:27:17.575Z,63.63
2023-03-17T06:28:19.388Z,66.24
2023-03-17T06:29:21.177Z,66.16
2023-03-17T06:30:22.985Z,66.01
2023-03-17T06:31:24.962Z,59.19
2023-03-17T06:32:26.925Z,52.51
2023-03-17T06:33:28.677Z,49.61
2023-03-17T06:34:30.479Z,50.85
2023-03-17T06:35:32.537Z,46.65
2023-03-17T06:36:36.397Z,45.77
2023-03-17T06:37:38.254Z,45.20
2023-03-17T06:38:40.035Z,44.98
2023-03-17T06:39:42.008Z,44.53
2023-03-17T06:40:43.935Z,47.35
2023-03-17T06:41:45.764Z,45.26
2023-03-17T06:42:47.592Z,41.21
2023-03-17T06:43:49.485Z,40.10
2023-03-17T06:44:51.348Z,41.53
2023-03-17T06:45:53.137Z,35.86
2023-03-17T06:46:55.116Z,35.98
2023-03-17T06:47:57.012Z,41.18
2023-03-17T06:48:58.841Z,38.08
2023-03-17T06:50:00.659Z,37.49
2023-03-17T06:51:02.450Z,37.98
2023-03-17T06:52:04.387Z,37.60
2023-03-17T06:53:06.208Z,39.10
2023-03-17T06:54:08.045Z,39.87
2023-03-17T06:55:09.866Z,40.22
2023-03-17T06:56:23.489Z,38.13
2023-03-17T06:57:15.536Z,36.81
2023-03-17T06:58:17.370Z,37.41
2023-03-17T06:59:19.250Z,38.80
2023-03-17T07:00:21.192Z,37.12
2023-03-17T07:01:23.191Z,37.03
2023-03-17T07:02:25.121Z,38.61
2023-03-17T07:03:26.946Z,34.47
2023-03-17T07:04:28.830Z,37.26
2023-03-17T07:05:30.965Z,37.81
2023-03-17T07:06:33.022Z,31.83
2023-03-17T07:07:34.900Z,37.58
2023-03-17T07:08:36.720Z,36.02
2023-03-17T07:09:38.520Z,39.81
2023-03-17T07:10:40.355Z,38.45
2023-03-17T07:11:42.318Z,37.41
2023-03-17T07:12:44.176Z,35.82
2023-03-17T07:13:46.062Z,34.99
2023-03-17T07:14:47.915Z,33.69
2023-03-17T07:15:49.813Z,35.09
2023-03-17T07:16:51.671Z,34.58
2023-03-17T07:17:53.534Z,38.64
2023-03-17T07:18:55.341Z,35.12
2023-03-17T07:19:57.171Z,37.39
2023-03-17T07:20:58.973Z,35.21
2023-03-17T07:22:00.828Z,40.51
2023-03-17T07:23:02.724Z,38.46
2023-03-17T07:24:04.575Z,34.89
2023-03-17T07:25:06.374Z,37.86
2023-03-17T07:26:08.169Z,39.27
2023-03-17T07:27:10.009Z,44.73
2023-03-17T07:28:11.868Z,43.11
2023-03-17T07:29:13.621Z,42.54
2023-03-17T07:30:15.443Z,41.44
2023-03-17T07:31:17.315Z,44.53
2023-03-17T07:32:19.367Z,37.65
2023-03-17T07:34:37.255Z,40.31
2023-03-17T07:35:39.136Z,42.36
2023-03-17T07:36:40.965Z,44.74
2023-03-17T07:37:42.806Z,41.65
2023-03-17T07:38:44.653Z,44.02
2023-03-17T07:39:46.474Z,45.29
2023-03-17T07:40:48.303Z,41.05
2023-03-17T07:41:50.131Z,40.69
2023-03-17T07:42:51.939Z,43.88
2023-03-17T07:43:53.838Z,39.28
2023-03-17T07:44:55.686Z,41.15
2023-03-17T07:45:57.562Z,37.13
2023-03-17T07:46:59.353Z,39.03
2023-03-17T07:48:01.159Z,41.43
2023-03-17T07:49:03.010Z,39.09
2023-03-17T07:50:04.939Z,36.53
2023-03-17T07:51:06.752Z,37.74
2023-03-17T07:52:08.635Z,38.47
2023-03-17T07:53:10.478Z,42.81
2023-03-17T07:54:14.914Z,45.39
2023-03-17T07:55:16.115Z,43.64
2023-03-17T07:56:17.893Z,47.05
2023-03-17T07:57:19.802Z,42.92
2023-03-17T07:58:21.704Z,44.14
2023-03-17T07:59:23.592Z,49.06
2023-03-17T08:00:25.596Z,47.21
2023-03-17T08:01:27.417Z,42.85
2023-03-17T08:02:29.374Z,44.25
2023-03-17T08:03:31.218Z,55.99
2023-03-17T08:04:33.205Z,44.67
2023-03-17T08:05:35.030Z,47.75
2023-03-17T08:06:36.819Z,43.88
2023-03-17T08:07:38.650Z,47.71
2023-03-17T08:08:40.470Z,44.02
2023-03-17T08:09:42.308Z,50.83
2023-03-17T08:10:44.251Z,48.08
2023-03-17T08:11:46.029Z,46.44
2023-03-17T08:12:47.872Z,53.81
2023-03-17T08:13:49.679Z,48.81
2023-03-17T08:14:51.700Z,48.31
2023-03-17T08:15:53.538Z,51.39
2023-03-17T08:16:55.358Z,49.13
2023-03-17T08:17:57.248Z,55.53
2023-03-17T08:18:59.094Z,51.41
2023-03-17T08:20:00.941Z,52.63
2023-03-17T08:21:02.765Z,53.26
2023-03-17T08:22:04.618Z,48.99
2023-03-17T08:23:06.413Z,51.13
2023-03-17T08:24:08.187Z,50.81
2023-03-17T08:25:10.092Z,48.39
2023-03-17T08:26:12.221Z,45.99
2023-03-17T08:27:14.036Z,43.99
2023-03-17T08:28:15.853Z,45.44
2023-03-17T08:29:17.671Z,44.73
2023-03-17T08:30:19.517Z,44.33
2023-03-17T08:31:21.456Z,45.09
2023-03-17T08:32:23.288Z,41.47
2023-03-17T08:33:25.152Z,46.23
2023-03-17T08:34:26.942Z,44.43
2023-03-17T08:35:29.235Z,43.15
2023-03-17T08:36:31.417Z,45.55
2023-03-17T08:37:34.252Z,48.04
2023-03-17T08:38:36.086Z,49.47
2023-03-17T08:39:37.903Z,43.67
2023-03-17T08:40:39.769Z,41.44
2023-03-17T08:41:41.634Z,44.71
2023-03-17T08:42:43.498Z,48.33
2023-03-17T08:43:45.406Z,44.88
2023-03-17T08:44:47.239Z,47.51
2023-03-17T08:45:49.123Z,44.71
2023-03-17T08:46:51.051Z,46.62
2023-03-17T08:47:52.856Z,42.54
2023-03-17T08:48:54.675Z,44.20
2023-03-17T08:49:56.484Z,49.27
2023-03-17T08:50:58.332Z,51.04
2023-03-17T08:52:00.159Z,48.43
2023-03-17T08:53:01.967Z,45.20
2023-03-17T08:54:03.785Z,51.73
2023-03-17T08:55:05.597Z,53.17
2023-03-17T08:56:07.566Z,59.97
2023-03-17T08:57:09.400Z,55.49
2023-03-17T08:58:11.219Z,56.05
2023-03-17T08:59:13.166Z,54.76
2023-03-17T09:00:15.911Z,52.91
2023-03-17T09:01:17.823Z,65.00
2023-03-17T09:02:19.643Z,61.11
2023-03-17T09:03:21.560Z,57.27
2023-03-17T09:04:23.430Z,58.26
2023-03-17T09:05:25.232Z,58.81
2023-03-17T09:06:27.080Z,58.79
2023-03-17T09:07:28.903Z,64.29
2023-03-17T09:08:30.812Z,54.02
2023-03-17T09:09:32.638Z,60.10
2023-03-17T09:10:34.537Z,52.43
2023-03-17T09:11:36.394Z,51.63
2023-03-17T09:12:38.235Z,44.56
2023-03-17T09:13:40.006Z,37.29
2023-03-17T09:14:44.211Z,39.02
2023-03-17T09:15:45.455Z,39.81
2023-03-17T09:16:47.292Z,43.83
2023-03-17T09:17:49.122Z,54.31
2023-03-17T09:18:50.924Z,45.13
2023-03-17T09:19:52.725Z,41.77
2023-03-17T09:20:54.693Z,43.98
2023-03-17T09:21:56.533Z,47.31
2023-03-17T09:22:58.375Z,54.35
2023-03-17T09:24:02.370Z,53.51
2023-03-17T09:25:03.809Z,50.22
2023-03-17T09:26:05.610Z,53.01
2023-03-17T09:27:07.489Z,52.19
2023-03-17T09:28:09.380Z,58.86
2023-03-17T09:29:11.176Z,60.34
2023-03-17T09:30:12.980Z,59.36
2023-03-17T09:31:14.857Z,56.49
2023-03-17T09:32:16.702Z,68.83
2023-03-17T09:33:18.490Z,63.46
2023-03-17T09:34:20.326Z,61.23
2023-03-17T09:35:22.172Z,51.63
2023-03-17T09:36:24.176Z,50.08
2023-03-17T09:37:26.029Z,47.83
2023-03-17T09:38:27.986Z,47.49
2023-03-17T09:39:29.988Z,53.67
2023-03-17T09:40:32.124Z,50.53
2023-03-17T09:41:34.028Z,54.66
2023-03-17T09:42:35.925Z,45.51
2023-03-17T09:43:37.667Z,51.71
2023-03-17T09:44:39.460Z,52.09
2023-03-17T09:45:43.558Z,49.45
2023-03-17T09:46:44.863Z,45.79
2023-03-17T09:47:46.691Z,39.65
2023-03-17T09:48:48.492Z,47.22
2023-03-17T09:49:50.294Z,45.83
2023-03-17T09:50:52.103Z,37.89
2023-03-17T09:51:53.930Z,40.19
2023-03-17T09:52:55.808Z,40.57
2023-03-17T09:53:57.605Z,44.34
2023-03-17T09:54:59.404Z,46.36
2023-03-17T09:56:01.228Z,46.73
2023-03-17T09:57:03.063Z,36.21
2023-03-17T09:58:04.896Z,41.56
2023-03-17T09:59:06.725Z,39.21
2023-03-17T10:00:08.644Z,44.22
2023-03-17T10:01:10.478Z,41.01
2023-03-17T10:02:12.317Z,38.16
2023-03-17T10:03:14.115Z,40.21
2023-03-17T10:04:18.677Z,39.17
2023-03-17T10:05:19.645Z,47.95
2023-03-17T10:06:21.771Z,42.46
2023-03-17T10:07:23.568Z,42.50
2023-03-17T10:08:31.514Z,49.93
2023-03-17T10:09:29.041Z,40.04
2023-03-17T10:10:31.089Z,43.95
2023-03-17T10:11:33.024Z,44.57
2023-03-17T10:12:34.817Z,48.32
2023-03-17T10:13:36.667Z,46.77
2023-03-17T10:14:38.481Z,50.83
2023-03-17T10:15:40.295Z,46.57
2023-03-17T10:16:42.116Z,51.14
2023-03-17T10:17:43.941Z,53.28
2023-03-17T10:18:45.873Z,48.55
2023-03-17T10:19:47.674Z,50.86
2023-03-17T10:20:51.541Z,51.84
2023-03-17T10:21:53.117Z,64.80
2023-03-17T10:22:54.923Z,59.51
2023-03-17T10:23:56.790Z,54.95
2023-03-17T10:24:58.632Z,56.84
2023-03-17T10:26:00.432Z,56.65
2023-03-17T10:27:02.228Z,51.65
2023-03-17T10:28:04.732Z,62.57
2023-03-17T10:29:07.723Z,53.28
2023-03-17T10:30:09.943Z,58.33
2023-03-17T10:31:11.804Z,60.51
2023-03-17T10:32:13.616Z,72.81
2023-03-17T10:33:15.418Z,59.19
2023-03-17T10:34:17.269Z,62.39
2023-03-17T10:35:19.077Z,52.05
2023-03-17T10:36:20.885Z,52.40
2023-03-17T10:37:22.689Z,56.09
2023-03-17T10:38:24.536Z,50.57
2023-03-17T10:39:26.414Z,46.29
2023-03-17T10:40:28.546Z,56.49
2023-03-17T10:41:30.480Z,50.65
2023-03-17T10:42:32.273Z,51.62
2023-03-17T10:43:34.077Z,41.87
2023-03-17T10:44:35.956Z,48.08
2023-03-17T10:45:39.268Z,52.08
2023-03-17T10:46:41.399Z,53.32
2023-03-17T10:47:43.185Z,50.44
2023-03-17T10:48:44.997Z,45.64
2023-03-17T10:49:46.851Z,43.21
2023-03-17T10:50:49.688Z,41.54
2023-03-17T10:51:51.606Z,42.11
2023-03-17T10:52:53.409Z,38.51
2023-03-17T10:53:55.221Z,43.77
2023-03-17T10:54:57.101Z,42.01
2023-03-17T10:55:58.884Z,38.11
2023-03-17T10:57:00.785Z,44.75
2023-03-17T10:58:02.615Z,40.56
2023-03-17T10:59:04.397Z,43.12
2023-03-17T11:00:06.387Z,37.80
2023-03-17T11:01:08.381Z,38.96
2023-03-17T11:02:10.362Z,40.88
2023-03-17T11:03:12.158Z,45.59
2023-03-17T11:04:14.022Z,42.29
2023-03-17T11:05:15.907Z,46.07
2023-03-17T11:06:17.759Z,50.41
2023-03-17T11:07:19.586Z,54.45
2023-03-17T11:08:21.398Z,61.55
2023-03-17T11:09:23.238Z,62.42
2023-03-17T11:10:25.104Z,59.49
2023-03-17T11:11:26.787Z,62.04
2023-03-17T11:12:28.607Z,53.56
2023-03-17T11:13:30.479Z,55.92
2023-03-17T11:14:32.260Z,61.86
2023-03-17T11:15:34.106Z,56.68
2023-03-17T11:16:35.950Z,54.61
2023-03-17T11:17:37.819Z,54.04
2023-03-17T11:18:39.623Z,51.28
2023-03-17T11:19:41.439Z,54.23
2023-03-17T11:20:43.304Z,49.86
2023-03-17T11:21:45.096Z,47.56
2023-03-17T11:22:46.892Z,48.51
2023-03-17T11:23:48.718Z,42.81
2023-03-17T11:24:50.533Z,43.15
2023-03-17T11:25:52.390Z,46.35
2023-03-17T11:26:54.178Z,44.11
2023-03-17T11:27:56.017Z,37.94
2023-03-17T11:28:57.819Z,45.71
2023-03-17T11:29:59.631Z,42.20
2023-03-17T11:31:01.499Z,51.73
2023-03-17T11:32:03.391Z,52.06
2023-03-17T11:33:05.289Z,50.82
2023-03-17T11:34:07.221Z,57.15
2023-03-17T11:35:09.011Z,56.99
2023-03-17T11:36:11.398Z,49.74
2023-03-17T11:37:13.211Z,54.71
2023-03-17T11:38:15.014Z,55.74
2023-03-17T11:39:16.826Z,49.73
2023-03-17T11:40:18.647Z,51.26
2023-03-17T11:41:20.530Z,50.78
2023-03-17T11:42:22.325Z,50.24
2023-03-17T11:43:24.124Z,48.77
2023-03-17T11:44:25.947Z,47.31
2023-03-17T11:45:27.764Z,44.35
2023-03-17T11:46:29.636Z,45.61
2023-03-17T11:47:31.398Z,46.55
2023-03-17T11:48:33.233Z,50.15
2023-03-17T11:49:35.023Z,53.15
2023-03-17T11:50:36.885Z,52.80
2023-03-17T11:51:38.763Z,47.11
2023-03-17T11:52:40.576Z,50.90
2023-03-17T11:53:42.405Z,48.93
2023-03-17T11:54:44.244Z,51.29
2023-03-17T11:55:46.058Z,55.23
2023-03-17T11:56:47.935Z,53.43
2023-03-17T11:57:49.748Z,49.17
2023-03-17T11:58:51.631Z,53.63
2023-03-17T11:59:53.522Z,49.29
2023-03-17T12:00:55.316Z,46.83
2023-03-17T12:01:57.169Z,51.19
2023-03-17T12:02:58.991Z,53.72
2023-03-17T12:04:00.868Z,53.39
2023-03-17T12:05:02.752Z,56.13
2023-03-17T12:06:04.623Z,59.23
2023-03-17T12:07:06.496Z,59.67
2023-03-17T12:08:08.287Z,59.89
2023-03-17T12:09:10.128Z,57.29
2023-03-17T12:10:12.016Z,58.28
2023-03-17T12:11:13.833Z,57.11
2023-03-17T12:12:16.289Z,60.52
2023-03-17T12:13:18.194Z,57.63
2023-03-17T12:14:19.998Z,58.59
2023-03-17T12:15:21.803Z,56.89
2023-03-17T12:16:23.632Z,55.36
2023-03-17T12:17:27.141Z,55.59
2023-03-17T12:18:29.111Z,60.60
2023-03-17T12:19:30.939Z,50.49
2023-03-17T12:20:33.257Z,52.69
2023-03-17T12:21:35.286Z,50.66
2023-03-17T12:22:37.151Z,53.46
2023-03-17T12:23:38.976Z,49.57
2023-03-17T12:24:40.812Z,47.87
2023-03-17T12:25:42.694Z,44.85
2023-03-17T12:26:44.542Z,50.19
2023-03-17T12:27:46.455Z,47.09
2023-03-17T12:28:48.399Z,46.86
2023-03-17T12:29:50.219Z,50.00
2023-03-17T12:30:52.080Z,47.25
2023-03-17T12:31:53.947Z,46.09
2023-03-17T12:32:55.843Z,48.04
2023-03-17T12:33:57.624Z,48.63
2023-03-17T12:34:59.442Z,44.03
2023-03-17T12:36:01.367Z,38.99
2023-03-17T12:37:03.223Z,39.09
2023-03-17T12:38:05.068Z,43.21
2023-03-17T12:39:06.925Z,38.39
2023-03-17T12:40:09.057Z,39.67
2023-03-17T12:41:10.942Z,38.85
2023-03-17T12:42:12.810Z,34.34
2023-03-17T12:43:14.786Z,33.62
2023-03-17T12:44:16.608Z,34.24
2023-03-17T12:45:18.472Z,33.12
2023-03-17T12:46:20.385Z,34.87
2023-03-17T12:47:22.243Z,35.11
2023-03-17T12:48:24.109Z,32.93
2023-03-17T12:49:25.937Z,33.28
2023-03-17T12:50:27.777Z,31.29
2023-03-17T12:51:29.590Z,24.91
2023-03-17T12:52:31.401Z,21.41
2023-03-17T12:53:33.286Z,28.07
2023-03-17T12:54:35.152Z,19.43
2023-03-17T12:55:36.960Z,24.41
2023-03-17T12:56:38.874Z,21.09
2023-03-17T12:57:40.766Z,20.53
2023-03-17T12:58:42.660Z,20.27
2023-03-17T12:59:44.466Z,23.40
2023-03-17T13:00:46.285Z,21.01
2023-03-17T13:01:48.206Z,22.71
2023-03-17T13:02:50.078Z,19.58
2023-03-17T13:03:51.955Z,21.61
2023-03-17T13:04:53.746Z,19.25
2023-03-17T13:05:55.572Z,24.09
2023-03-17T13:06:57.416Z,19.95
2023-03-17T13:07:59.220Z,22.76
2023-03-17T13:09:01.113Z,24.71
2023-03-17T13:10:02.929Z,22.79
2023-03-17T13:11:04.789Z,22.47
2023-03-17T13:12:06.625Z,21.26
2023-03-17T13:13:08.419Z,24.86
2023-03-17T13:14:10.261Z,24.31
2023-03-17T13:15:12.080Z,21.93
2023-03-17T13:16:14.728Z,25.74
2023-03-17T13:17:16.521Z,19.45